Nearby METAR Reports

 

KJOT - Joliet, Illinois, USA
Distance from station: SSW 3mi, 6km
Updated: 02/22/2018 12:35am
Clear
Clear
 Wind from NNE
Wind: NNE 8 mph , 13 km/h
Temperature: 30°F , -1°C
Wind Chill: 22°F , -6°C
Dew Point: 25°F , -4°C
Humidity: 80%
Barometer: 30.55 inHg , 1034.5 hPa
Clouds: Clear
Visibility: 10 miles , 16 km
2018/02/22 06:35 KJOT 220635Z AUTO 03007KT 10SM CLR M01/M04 A3055 RMK AO2 T10061040
KLOT - Romeoville/Chi, Illinois, USA
Distance from station: NE 4mi, 6km
Updated: 02/22/2018 12:35am
Clear
Clear
 Wind from ENE
Wind: ENE 13 mph , 20 km/h
Temperature: 30°F , -1°C
Wind Chill: 20°F , -7°C
Dew Point: 25°F , -4°C
Humidity: 80%
Barometer: 30.54 inHg , 1034.2 hPa
Clouds: Clear
Visibility: 10 miles , 16 km
2018/02/22 06:35 KLOT 220635Z AUTO 06011KT 10SM CLR M01/M04 A3054 RMK AO2 T10151042
 
KC09 - Morris-Washburn, Illinois, USA
Distance from station: SW 16mi, 26km
Updated: 02/22/2018 12:35am
Clear
Clear
 Wind from NE
Wind: NE 6 mph , 9 km/h
Temperature: 30°F , -1°C
Wind Chill: 24°F , -4°C
Dew Point: 23°F , -5°C
Humidity: 75%
Barometer: 30.54 inHg , 1034.2 hPa
Clouds: Clear
Visibility: 10 miles , 16 km
2018/02/22 06:35 KC09 220635Z AUTO 04005KT 10SM CLR M01/M05 A3054 RMK AO2 T10151046
KARR - Chicago/Aurora, Illinois, USA
Distance from station: NW 22mi, 35km
Updated: 02/21/2018 11:52pm
Clear
Clear
 Wind from NE
Wind: NE 12 mph , 19 km/h
Temperature: 28°F , -2°C
Wind Chill: 18°F , -8°C
Dew Point: 21°F , -6°C
Humidity: 74%
Barometer: 30.56 inHg , 1034.9 hPa
Clouds: Clear
Visibility: 10 miles , 16 km
2018/02/22 05:52 KARR 220552Z AUTO 05010KT 10SM CLR M02/M06 A3056 RMK AO2 SLP358 T10221061 11011 21028 400001033 58019
 
KDPA - Chicago/Dupage, Illinois, USA
Distance from station: NNW 25mi, 40km
Updated: 02/21/2018 11:52pm
Clear
Clear
 Wind from NE
Wind: NE 12 mph , 19 km/h
Temperature: 27°F , -3°C
Wind Chill: 16°F , -9°C
Dew Point: 21°F , -6°C
Humidity: 80%
Barometer: 30.56 inHg , 1034.9 hPa
Clouds: Clear
Visibility: 10 miles , 16 km
2018/02/22 05:52 KDPA 220552Z 04010KT 10SM CLR M03/M06 A3056 RMK AO2 SLP358 T10281061 11017 21033 410061033 58021
KMDW - Chicago, Illinois, USA
Distance from station: NE 26mi, 42km
Updated: 02/21/2018 11:53pm
Overcast
Overcast
 Wind from ENE
Wind: ENE 17 mph , 28 km/h
Temperature: 30°F , -1°C
Wind Chill: 18°F , -8°C
Dew Point: 23°F , -5°C
Humidity: 75%
Barometer: 30.57 inHg , 1035.2 hPa
Clouds: Overcast
Visibility: 10 miles , 16 km
Cloud details: Overcast 21000 ft
2018/02/22 05:53 KMDW 220553Z 06015KT 10SM OVC210 M01/M05 A3057 RMK AO2 SLP366 T10061050 11006 21017 400111017 58019
 
KORD - Chicago O'hare, Illinois, USA
Distance from station: NNE 31mi, 50km
Updated: 02/21/2018 11:51pm
Overcast
Overcast
 Wind from NE
Wind: NE 14 mph , 22 km/h
Temperature: 28°F , -2°C
Wind Chill: 17°F , -8°C
Dew Point: 21°F , -6°C
Humidity: 74%
Barometer: 30.57 inHg , 1035.2 hPa
Clouds: Overcast
Visibility: 10 miles , 16 km
Cloud details: Mostly cloudy 20000 ft
Overcast 25000 ft
2018/02/22 05:51 KORD 220551Z 05012KT 10SM BKN200 OVC250 M02/M06 A3057 RMK AO2 SLP360 T10171061 11017 21017 400111028 58021
KIGQ - Chicago/Lansing, Illinois, USA
Distance from station: E 32mi, 52km
Updated: 02/22/2018 12:35am
Partly cloudy
Partly cloudy
 Wind from NE
Wind: NE 12 mph , 19 km/h, Gust: 17 mph , 28 km/h
Temperature: 32°F , 0°C
Wind Chill: 23°F , -5°C
Dew Point: 28°F , -2°C
Humidity: 87%
Barometer: 30.55 inHg , 1034.5 hPa
Clouds: Partly cloudy
Visibility: 10 miles , 16 km
Cloud details: Partly cloudy 1400 ft
2018/02/22 06:35 KIGQ 220635Z AUTO 05010G15KT 10SM SCT014 00/M02 A3055 RMK AO2 T10051022
 
KDKB - De Kalb, Illinois, USA
Distance from station: NW 38mi, 61km
Updated: 02/22/2018 12:35am
Clear
Clear
 Wind from NE
Wind: NE 15 mph , 24 km/h
Temperature: 27°F , -3°C
Wind Chill: 15°F , -9°C
Dew Point: 21°F , -6°C
Humidity: 80%
Barometer: 30.57 inHg , 1035.2 hPa
Clouds: Clear
Visibility: 10 miles , 16 km
2018/02/22 06:35 KDKB 220635Z AUTO 04013KT 10SM CLR M03/M06 A3057 RMK AO2 T10301057
KIKK - Kankakee, Illinois, USA
Distance from station: SSE 38mi, 61km
Updated: 02/22/2018 12:35am
Partly cloudy
Partly cloudy
 Wind from NE
Wind: NE 14 mph , 22 km/h
Temperature: 32°F , 0°C
Wind Chill: 22°F , -6°C
Dew Point: 27°F , -3°C
Humidity: 80%
Barometer: 30.53 inHg , 1033.9 hPa
Clouds: Partly cloudy
Visibility: 10 miles , 16 km
Cloud details: Partly cloudy 7000 ft
2018/02/22 06:35 KIKK 220635Z AUTO 05012KT 10SM SCT070 00/M03 A3053 RMK AO2 T10051030
 
KGYY - Gary Regional, Indiana, USA
Distance from station: E 38mi, 62km
Updated: 02/22/2018 12:35am
Partly cloudy
Partly cloudy
 Wind from NE
Wind: NE 14 mph , 22 km/h, Gust: 21 mph , 33 km/h
Temperature: 32°F , 0°C
Wind Chill: 22°F , -6°C
Dew Point: 28°F , -2°C
Humidity: 87%
Barometer: 30.56 inHg , 1034.9 hPa
Clouds: Partly cloudy
Visibility: 10 miles , 16 km
Cloud details: Partly cloudy 1200 ft
2018/02/22 06:35 KGYY 220635Z AUTO 04012G18KT 10SM SCT012 00/M02 A3056 RMK AO2 T00011025
KPWK - Palwaukee, Illinois, USA
Distance from station: NNE 40mi, 65km
Updated: 02/21/2018 11:52pm
Clear
Clear
 Wind from NE
Wind: NE 10 mph , 17 km/h
Temperature: 30°F , -1°C
Wind Chill: 21°F , -6°C
Dew Point: 21°F , -6°C
Humidity: 69%
Barometer: 30.60 inHg , 1036.2 hPa
Clouds: Clear
Visibility: 10 miles , 16 km
2018/02/22 05:52 KPWK 220552Z AUTO 05009KT 10SM CLR M01/M06 A3060 RMK AO2 SLP370 T10111056 11011 21017 400111028 58021